createdAt,value
2022-07-27T00:00:03.618Z,19.65
2022-07-27T00:01:03.682Z,19.54
2022-07-27T00:02:03.963Z,19.54
2022-07-27T00:03:03.392Z,19.56
2022-07-27T00:04:03.711Z,19.55
2022-07-27T00:05:03.438Z,19.54
2022-07-27T00:06:03.393Z,19.55
2022-07-27T00:07:03.867Z,19.56
2022-07-27T00:08:03.517Z,19.53
2022-07-27T00:09:03.716Z,19.50
2022-07-27T00:10:03.805Z,19.50
2022-07-27T00:11:03.557Z,19.47
2022-07-27T00:12:04.115Z,19.45
2022-07-27T00:13:04.228Z,19.45
2022-07-27T00:14:04.127Z,19.49
2022-07-27T00:15:04.332Z,19.48
2022-07-27T00:16:04.565Z,19.51
2022-07-27T00:17:03.851Z,19.53
2022-07-27T00:18:03.465Z,19.50
2022-07-27T00:19:03.239Z,19.48
2022-07-27T00:20:03.239Z,19.50
2022-07-27T00:21:03.556Z,19.47
2022-07-27T00:22:03.917Z,19.45
2022-07-27T00:23:04.284Z,19.38
2022-07-27T00:24:03.887Z,19.39
2022-07-27T00:25:04.302Z,19.40
2022-07-27T00:26:03.997Z,19.41
2022-07-27T00:27:03.510Z,19.43
2022-07-27T00:28:03.876Z,19.45
2022-07-27T00:29:03.522Z,19.46
2022-07-27T00:30:03.838Z,19.49
2022-07-27T00:31:03.942Z,19.49
2022-07-27T00:32:03.719Z,19.48
2022-07-27T00:33:04.110Z,19.46
2022-07-27T00:34:03.702Z,19.47
2022-07-27T00:35:04.013Z,19.47
2022-07-27T00:36:03.843Z,19.47
2022-07-27T00:37:04.359Z,19.47
2022-07-27T00:38:04.418Z,19.50
2022-07-27T00:39:04.426Z,19.49
2022-07-27T00:40:04.120Z,19.45
2022-07-27T00:41:04.261Z,19.43
2022-07-27T00:42:03.550Z,19.41
2022-07-27T00:43:03.957Z,19.34
2022-07-27T00:44:03.698Z,19.26
2022-07-27T00:45:03.965Z,19.22
2022-07-27T00:46:04.571Z,19.20
2022-07-27T00:47:03.626Z,19.15
2022-07-27T00:48:04.660Z,19.08
2022-07-27T00:49:04.366Z,19.08
2022-07-27T00:50:03.832Z,19.05
2022-07-27T00:51:04.437Z,19.06
2022-07-27T00:52:03.607Z,19.05
2022-07-27T00:53:03.971Z,19.06
2022-07-27T00:54:04.037Z,19.08
2022-07-27T00:55:03.996Z,19.09
2022-07-27T00:56:03.730Z,19.08
2022-07-27T00:57:04.136Z,19.07
2022-07-27T00:58:03.987Z,19.06
2022-07-27T00:59:03.967Z,19.08
2022-07-27T01:00:04.026Z,18.97
2022-07-27T01:01:03.873Z,18.92
2022-07-27T01:02:03.370Z,18.90
2022-07-27T01:03:08.814Z,18.93
2022-07-27T01:04:03.128Z,18.96
2022-07-27T01:05:03.486Z,18.99
2022-07-27T01:06:03.122Z,19.01
2022-07-27T01:07:03.760Z,19.04
2022-07-27T01:08:03.821Z,19.04
2022-07-27T01:09:03.988Z,19.07
2022-07-27T01:10:03.978Z,19.06
2022-07-27T01:11:03.482Z,19.07
2022-07-27T01:12:02.710Z,19.10
2022-07-27T01:13:03.139Z,19.14
2022-07-27T01:14:02.809Z,19.17
2022-07-27T01:15:03.074Z,19.14
2022-07-27T01:16:03.005Z,19.13
2022-07-27T01:17:02.675Z,19.10
2022-07-27T01:18:03.247Z,19.08
2022-07-27T01:19:03.251Z,19.06
2022-07-27T01:20:03.406Z,19.03
2022-07-27T01:21:03.039Z,19.04
2022-07-27T01:22:03.327Z,19.04
2022-07-27T01:23:02.730Z,19.07
2022-07-27T01:24:03.015Z,19.03
2022-07-27T01:25:03.215Z,19.02
2022-07-27T01:26:02.771Z,19.02
2022-07-27T01:27:03.910Z,19.02
2022-07-27T01:28:03.906Z,19.03
2022-07-27T01:29:03.951Z,19.03
2022-07-27T01:30:03.704Z,19.01
2022-07-27T01:31:03.910Z,19.03
2022-07-27T01:32:03.290Z,19.02
2022-07-27T01:33:02.859Z,19.03
2022-07-27T01:34:03.116Z,19.04
2022-07-27T01:35:02.896Z,19.05
2022-07-27T01:36:02.897Z,19.07
2022-07-27T01:37:03.969Z,19.09
2022-07-27T01:38:04.114Z,19.11
2022-07-27T01:39:03.686Z,19.12
2022-07-27T01:40:04.052Z,19.13
2022-07-27T01:41:03.516Z,19.13
2022-07-27T01:42:03.615Z,19.12
2022-07-27T01:43:03.145Z,19.11
2022-07-27T01:44:03.594Z,19.13
2022-07-27T01:45:03.629Z,19.10
2022-07-27T01:46:03.716Z,19.08
2022-07-27T01:47:03.193Z,19.06
2022-07-27T01:48:02.739Z,19.05
2022-07-27T01:49:03.034Z,19.05
2022-07-27T01:50:03.325Z,18.99
2022-07-27T01:51:02.897Z,18.95
2022-07-27T01:52:03.955Z,18.94
2022-07-27T01:53:03.692Z,18.89
2022-07-27T01:54:03.658Z,18.89
2022-07-27T01:55:03.724Z,18.88
2022-07-27T01:56:03.430Z,18.81
2022-07-27T01:57:03.292Z,18.69
2022-07-27T01:58:02.770Z,18.66
2022-07-27T01:59:03.459Z,18.67
2022-07-27T02:00:03.544Z,18.68
2022-07-27T02:01:03.455Z,18.68
2022-07-27T02:02:03.855Z,18.68
2022-07-27T02:03:03.440Z,18.65
2022-07-27T02:04:03.795Z,18.65
2022-07-27T02:05:03.499Z,18.63
2022-07-27T02:06:03.836Z,18.63
2022-07-27T02:07:04.160Z,18.62
2022-07-27T02:08:03.567Z,18.61
2022-07-27T02:09:03.951Z,18.61
2022-07-27T02:10:03.735Z,18.64
2022-07-27T02:11:03.678Z,18.64
2022-07-27T02:12:03.096Z,18.65
2022-07-27T02:13:22.314Z,18.65
2022-07-27T02:14:03.725Z,18.66
2022-07-27T02:15:05.556Z,18.58
2022-07-27T02:16:03.370Z,18.51
2022-07-27T02:17:03.193Z,18.47
2022-07-27T02:18:03.694Z,18.45
2022-07-27T02:19:04.715Z,18.43
2022-07-27T02:20:03.666Z,18.41
2022-07-27T02:21:03.843Z,18.38
2022-07-27T02:22:04.470Z,18.37
2022-07-27T02:23:04.181Z,18.38
2022-07-27T02:24:04.383Z,18.36
2022-07-27T02:25:03.392Z,18.33
2022-07-27T02:26:03.982Z,18.30
2022-07-27T02:27:03.923Z,18.27
2022-07-27T02:28:03.851Z,18.23
2022-07-27T02:29:03.443Z,18.21
2022-07-27T02:30:03.719Z,18.22
2022-07-27T02:31:03.460Z,18.16
2022-07-27T02:32:03.834Z,18.14
2022-07-27T02:33:04.291Z,18.13
2022-07-27T02:34:04.254Z,18.12
2022-07-27T02:35:18.330Z,18.11
2022-07-27T02:36:04.100Z,18.05
2022-07-27T02:37:03.555Z,18.03
2022-07-27T02:38:03.853Z,18.02
2022-07-27T02:39:03.498Z,18.00
2022-07-27T02:40:03.846Z,18.01
2022-07-27T02:41:04.170Z,17.99
2022-07-27T02:42:03.810Z,17.98
2022-07-27T02:43:04.384Z,17.96
2022-07-27T02:44:04.398Z,17.98
2022-07-27T02:45:03.943Z,17.98
2022-07-27T02:46:04.319Z,17.96
2022-07-27T02:47:03.898Z,17.94
2022-07-27T02:48:04.095Z,17.92
2022-07-27T02:49:04.379Z,17.90
2022-07-27T02:50:04.225Z,17.88
2022-07-27T02:51:04.206Z,17.86
2022-07-27T02:52:04.226Z,17.84
2022-07-27T02:53:04.582Z,17.75
2022-07-27T02:54:04.371Z,17.73
2022-07-27T02:55:04.222Z,17.71
2022-07-27T02:56:04.608Z,17.72
2022-07-27T02:57:03.570Z,17.69
2022-07-27T02:58:03.971Z,17.68
2022-07-27T02:59:02.949Z,17.67
2022-07-27T03:00:03.952Z,17.66
2022-07-27T03:01:03.807Z,17.63
2022-07-27T03:02:03.359Z,17.57
2022-07-27T03:03:03.579Z,17.53
2022-07-27T03:04:03.156Z,17.47
2022-07-27T03:05:03.575Z,17.43
2022-07-27T03:06:03.044Z,17.33
2022-07-27T03:07:03.380Z,17.28
2022-07-27T03:08:03.194Z,17.25
2022-07-27T03:09:03.432Z,17.25
2022-07-27T03:10:03.776Z,17.22
2022-07-27T03:11:03.408Z,17.20
2022-07-27T03:12:02.973Z,17.11
2022-07-27T03:13:03.041Z,17.08
2022-07-27T03:14:02.778Z,17.03
2022-07-27T03:15:03.156Z,17.06
2022-07-27T03:16:02.801Z,17.08
2022-07-27T03:17:03.501Z,17.10
2022-07-27T03:18:03.307Z,17.13
2022-07-27T03:19:03.632Z,17.13
2022-07-27T03:20:03.249Z,17.16
2022-07-27T03:21:03.093Z,17.15
2022-07-27T03:22:02.813Z,17.13
2022-07-27T03:23:02.743Z,17.12
2022-07-27T03:24:02.493Z,17.11
2022-07-27T03:25:03.066Z,17.09
2022-07-27T03:26:02.599Z,17.08
2022-07-27T03:27:02.281Z,17.01
2022-07-27T03:28:04.411Z,17.00
2022-07-27T03:29:02.751Z,16.99
2022-07-27T03:30:03.130Z,17.00
2022-07-27T03:31:02.753Z,17.01
2022-07-27T03:32:03.156Z,17.03
2022-07-27T03:33:03.444Z,17.04
2022-07-27T03:34:03.162Z,17.05
2022-07-27T03:35:02.853Z,17.03
2022-07-27T03:36:02.914Z,17.04
2022-07-27T03:37:03.995Z,17.06
2022-07-27T03:38:03.826Z,17.04
2022-07-27T03:39:06.145Z,17.06
2022-07-27T03:40:03.743Z,17.05
2022-07-27T03:41:04.098Z,17.02
2022-07-27T03:42:03.507Z,16.98
2022-07-27T03:43:03.120Z,16.95
2022-07-27T03:44:03.455Z,16.93
2022-07-27T03:45:03.276Z,16.89
2022-07-27T03:46:03.798Z,16.83
2022-07-27T03:47:03.099Z,16.78
2022-07-27T03:48:02.771Z,16.73
2022-07-27T03:49:03.005Z,16.70
2022-07-27T03:50:03.309Z,16.69
2022-07-27T03:51:03.200Z,16.70
2022-07-27T03:52:03.528Z,16.67
2022-07-27T03:53:03.464Z,16.65
2022-07-27T03:54:03.451Z,16.65
2022-07-27T03:55:03.272Z,16.60
2022-07-27T03:56:03.450Z,16.59
2022-07-27T03:57:03.884Z,16.57
2022-07-27T03:58:03.630Z,16.57
2022-07-27T03:59:03.942Z,16.58
2022-07-27T04:00:03.469Z,16.53
2022-07-27T04:01:03.551Z,16.49
2022-07-27T04:02:04.123Z,16.47
2022-07-27T04:03:03.601Z,16.46
2022-07-27T04:04:03.597Z,16.40
2022-07-27T04:05:03.745Z,16.40
2022-07-27T04:06:03.965Z,16.36
2022-07-27T04:07:04.180Z,16.36
2022-07-27T04:08:03.963Z,16.32
2022-07-27T04:09:08.303Z,16.32
2022-07-27T04:10:03.960Z,16.27
2022-07-27T04:11:04.297Z,16.27
2022-07-27T04:12:03.807Z,16.22
2022-07-27T04:13:02.824Z,16.20
2022-07-27T04:14:03.616Z,16.19
2022-07-27T04:15:03.366Z,16.21
2022-07-27T04:16:03.276Z,16.23
2022-07-27T04:17:04.333Z,16.25
2022-07-27T04:18:04.446Z,16.26
2022-07-27T04:19:03.987Z,16.24
2022-07-27T04:20:04.234Z,16.22
2022-07-27T04:21:04.263Z,16.20
2022-07-27T04:22:03.593Z,16.18
2022-07-27T04:23:03.245Z,16.16
2022-07-27T04:24:03.669Z,16.15
2022-07-27T04:25:03.455Z,16.17
2022-07-27T04:26:03.481Z,16.17
2022-07-27T04:27:03.959Z,16.18
2022-07-27T04:28:03.637Z,16.19
2022-07-27T04:29:03.946Z,16.20
2022-07-27T04:30:09.011Z,16.22
2022-07-27T04:31:03.560Z,16.22
2022-07-27T04:32:04.137Z,16.21
2022-07-27T04:33:03.886Z,16.19
2022-07-27T04:34:04.503Z,16.19
2022-07-27T04:35:04.047Z,16.09
2022-07-27T04:36:03.144Z,16.08
2022-07-27T04:37:03.961Z,16.02
2022-07-27T04:38:03.679Z,16.00
2022-07-27T04:39:03.585Z,15.97
2022-07-27T04:40:04.016Z,15.96
2022-07-27T04:41:03.808Z,15.96
2022-07-27T04:42:04.219Z,15.96
2022-07-27T04:43:04.033Z,15.96
2022-07-27T04:44:04.220Z,15.95
2022-07-27T04:45:04.055Z,15.97
2022-07-27T04:46:04.356Z,15.98
2022-07-27T04:47:03.588Z,15.95
2022-07-27T04:48:03.246Z,15.92
2022-07-27T04:49:03.726Z,15.86
2022-07-27T04:50:03.482Z,15.87
2022-07-27T04:51:03.267Z,15.85
2022-07-27T04:52:03.793Z,15.86
2022-07-27T04:53:03.997Z,15.83
2022-07-27T04:54:03.769Z,15.84
2022-07-27T04:55:04.090Z,15.83
2022-07-27T04:56:03.708Z,15.83
2022-07-27T04:57:03.431Z,15.85
2022-07-27T04:58:03.176Z,15.87
2022-07-27T04:59:03.366Z,15.84
2022-07-27T05:00:03.195Z,15.83
2022-07-27T05:01:03.788Z,15.81
2022-07-27T05:02:02.724Z,15.82
2022-07-27T05:03:02.695Z,15.82
2022-07-27T05:04:03.334Z,15.86
2022-07-27T05:05:03.259Z,15.86
2022-07-27T05:06:02.776Z,15.79
2022-07-27T05:07:02.748Z,15.74
2022-07-27T05:08:02.610Z,15.73
2022-07-27T05:09:02.281Z,15.70
2022-07-27T05:10:02.647Z,15.66
2022-07-27T05:11:02.183Z,15.67
2022-07-27T05:12:02.595Z,15.68
2022-07-27T05:13:03.049Z,15.71
2022-07-27T05:14:02.815Z,15.76
2022-07-27T05:15:03.128Z,15.77
2022-07-27T05:16:03.189Z,15.75
2022-07-27T05:17:03.023Z,15.78
2022-07-27T05:18:03.473Z,15.82
2022-07-27T05:19:02.873Z,15.79
2022-07-27T05:20:02.631Z,15.79
2022-07-27T05:21:03.203Z,15.81
2022-07-27T05:22:02.723Z,15.78
2022-07-27T05:23:02.973Z,15.80
2022-07-27T05:24:02.811Z,15.82
2022-07-27T05:25:02.524Z,15.85
2022-07-27T05:26:02.934Z,15.84
2022-07-27T05:27:02.469Z,15.86
2022-07-27T05:28:02.832Z,15.87
2022-07-27T05:29:02.261Z,15.89
2022-07-27T05:30:02.367Z,15.92
2022-07-27T05:31:02.824Z,15.93
2022-07-27T05:32:02.745Z,15.97
2022-07-27T05:33:02.370Z,15.99
2022-07-27T05:34:02.549Z,16.01
2022-07-27T05:35:02.927Z,16.05
2022-07-27T05:36:02.734Z,16.08
2022-07-27T05:37:03.491Z,16.12
2022-07-27T05:38:02.977Z,16.18
2022-07-27T05:39:03.319Z,16.25
2022-07-27T05:40:03.195Z,16.29
2022-07-27T05:41:02.957Z,16.33
2022-07-27T05:42:03.440Z,16.39
2022-07-27T05:43:03.729Z,16.36
2022-07-27T05:44:03.609Z,16.39
2022-07-27T05:45:03.354Z,16.43
2022-07-27T05:46:03.777Z,16.49
2022-07-27T05:47:02.656Z,16.53
2022-07-27T05:48:02.809Z,16.57
2022-07-27T05:49:02.751Z,16.63
2022-07-27T05:50:02.649Z,16.70
2022-07-27T05:51:02.701Z,16.75
2022-07-27T05:52:03.177Z,16.82
2022-07-27T05:53:02.931Z,16.87
2022-07-27T05:54:02.626Z,16.94
2022-07-27T05:55:03.478Z,17.00
2022-07-27T05:56:02.926Z,17.06
2022-07-27T05:57:03.414Z,17.11
2022-07-27T05:58:03.216Z,17.13
2022-07-27T05:59:06.948Z,17.17
2022-07-27T06:00:03.722Z,17.23
2022-07-27T06:01:03.772Z,17.29
2022-07-27T06:02:02.705Z,17.36
2022-07-27T06:03:02.554Z,17.46
2022-07-27T06:04:02.923Z,17.55
2022-07-27T06:05:02.889Z,17.64
2022-07-27T06:06:02.709Z,17.69
2022-07-27T06:07:02.992Z,17.72
2022-07-27T06:08:02.892Z,17.71
2022-07-27T06:09:03.131Z,17.74
2022-07-27T06:10:03.054Z,17.80
2022-07-27T06:11:02.679Z,17.87
2022-07-27T06:12:03.443Z,17.92
2022-07-27T06:13:03.057Z,17.98
2022-07-27T06:14:03.418Z,18.05
2022-07-27T06:15:02.858Z,18.12
2022-07-27T06:16:03.227Z,18.20
2022-07-27T06:17:02.703Z,18.26
2022-07-27T06:18:02.770Z,18.34
2022-07-27T06:19:02.836Z,18.40
2022-07-27T06:20:02.567Z,18.47
2022-07-27T06:21:02.679Z,18.55
2022-07-27T06:22:03.258Z,18.61
2022-07-27T06:23:03.191Z,18.67
2022-07-27T06:24:02.916Z,18.71
2022-07-27T06:25:03.350Z,18.77
2022-07-27T06:26:03.177Z,18.84
2022-07-27T06:27:02.638Z,18.92
2022-07-27T06:28:02.591Z,19.01
2022-07-27T06:29:02.913Z,19.11
2022-07-27T06:30:02.581Z,19.18
2022-07-27T06:31:02.429Z,19.22
2022-07-27T06:32:02.856Z,19.28
2022-07-27T06:33:02.581Z,19.31
2022-07-27T06:34:02.467Z,19.35
2022-07-27T06:35:02.889Z,19.41
2022-07-27T06:36:02.431Z,19.49
2022-07-27T06:37:02.620Z,19.56
2022-07-27T06:38:02.589Z,19.66
2022-07-27T06:39:02.842Z,19.74
2022-07-27T06:40:02.707Z,19.83
2022-07-27T06:41:03.145Z,19.92
2022-07-27T06:42:03.206Z,20.01
2022-07-27T06:43:03.298Z,20.08
2022-07-27T06:44:03.199Z,20.18
2022-07-27T06:45:03.060Z,20.24
2022-07-27T06:46:03.370Z,20.28
2022-07-27T06:47:03.462Z,20.31
2022-07-27T06:48:03.554Z,20.35
2022-07-27T06:49:03.499Z,20.42
2022-07-27T06:50:02.926Z,20.49
2022-07-27T06:51:03.438Z,20.54
2022-07-27T06:52:03.076Z,20.60
2022-07-27T06:53:02.890Z,20.63
2022-07-27T06:54:03.050Z,20.65
2022-07-27T06:55:03.021Z,20.69
2022-07-27T06:56:02.755Z,20.70
2022-07-27T06:57:03.215Z,20.73
2022-07-27T06:58:03.070Z,20.78
2022-07-27T06:59:02.892Z,20.83
2022-07-27T07:00:02.974Z,20.87
2022-07-27T07:01:02.933Z,20.92
2022-07-27T07:02:03.338Z,20.96
2022-07-27T07:03:03.046Z,21.02
2022-07-27T07:04:03.500Z,21.08
2022-07-27T07:05:03.230Z,21.11
2022-07-27T07:06:02.947Z,21.15
2022-07-27T07:07:07.112Z,21.16
2022-07-27T07:08:03.609Z,21.17
2022-07-27T07:09:03.786Z,21.15
2022-07-27T07:10:03.315Z,21.18
2022-07-27T07:11:03.656Z,21.20
2022-07-27T07:12:03.207Z,21.24
2022-07-27T07:13:02.853Z,21.19
2022-07-27T07:14:02.691Z,21.19
2022-07-27T07:15:03.151Z,21.20
2022-07-27T07:16:02.926Z,21.21
2022-07-27T07:17:03.349Z,21.25
2022-07-27T07:18:03.109Z,21.23
2022-07-27T07:19:03.438Z,21.27
2022-07-27T07:20:03.241Z,21.29
2022-07-27T07:21:03.066Z,21.31
2022-07-27T07:22:03.446Z,21.34
2022-07-27T07:23:03.261Z,21.34
2022-07-27T07:24:03.512Z,21.33
2022-07-27T07:25:03.564Z,21.34
2022-07-27T07:26:03.018Z,21.38
2022-07-27T07:27:03.441Z,21.41
2022-07-27T07:28:03.211Z,21.46
2022-07-27T07:29:03.732Z,21.38
2022-07-27T07:30:03.700Z,21.36
2022-07-27T07:31:03.600Z,21.34
2022-07-27T07:32:04.036Z,21.35
2022-07-27T07:33:03.525Z,21.39
2022-07-27T07:34:03.931Z,21.40
2022-07-27T07:35:03.479Z,21.36
2022-07-27T07:36:13.226Z,21.37
2022-07-27T07:37:03.231Z,21.20
2022-07-27T07:38:03.024Z,21.19
2022-07-27T07:39:02.802Z,21.21
2022-07-27T07:40:25.317Z,21.25
2022-07-27T07:41:03.168Z,21.29
2022-07-27T07:42:03.468Z,21.34
2022-07-27T07:43:03.273Z,21.40
2022-07-27T07:44:03.654Z,21.51
2022-07-27T07:45:03.339Z,21.51
2022-07-27T07:46:03.202Z,21.54
2022-07-27T07:47:03.823Z,21.54
2022-07-27T07:48:03.135Z,21.49
2022-07-27T07:49:03.680Z,21.51
2022-07-27T07:50:03.530Z,21.54
2022-07-27T07:51:03.431Z,21.51
2022-07-27T07:52:03.964Z,21.54
2022-07-27T07:53:03.489Z,21.58
2022-07-27T07:54:03.385Z,21.62
2022-07-27T07:55:03.597Z,21.69
2022-07-27T07:56:03.753Z,21.72
2022-07-27T07:57:03.075Z,21.79
2022-07-27T07:58:02.821Z,21.86
2022-07-27T07:59:02.970Z,21.92
2022-07-27T08:00:03.032Z,22.00
2022-07-27T08:01:02.780Z,22.01
2022-07-27T08:02:03.485Z,21.99
2022-07-27T08:03:03.798Z,22.01
2022-07-27T08:04:03.712Z,22.03
2022-07-27T08:05:03.781Z,22.03
2022-07-27T08:06:03.439Z,22.06
2022-07-27T08:07:02.820Z,21.98
2022-07-27T08:08:03.259Z,21.91
2022-07-27T08:09:03.250Z,21.99
2022-07-27T08:10:03.075Z,22.05
2022-07-27T08:11:02.809Z,22.11
2022-07-27T08:12:02.888Z,22.13
2022-07-27T08:13:03.266Z,22.13
2022-07-27T08:14:03.113Z,22.23
2022-07-27T08:15:03.239Z,22.31
2022-07-27T08:16:03.130Z,22.33
2022-07-27T08:17:02.612Z,22.37
2022-07-27T08:18:02.968Z,22.34
2022-07-27T08:19:02.852Z,22.34
2022-07-27T08:20:03.001Z,22.33
2022-07-27T08:21:03.184Z,22.35
2022-07-27T08:22:02.897Z,22.33
2022-07-27T08:23:03.364Z,22.30
2022-07-27T08:24:02.986Z,22.29
2022-07-27T08:25:03.006Z,22.21
2022-07-27T08:26:07.512Z,22.27
2022-07-27T08:27:03.325Z,22.32
2022-07-27T08:28:03.770Z,22.27
2022-07-27T08:29:11.353Z,22.12
2022-07-27T08:30:03.753Z,22.18
2022-07-27T08:31:08.958Z,22.14
2022-07-27T08:32:03.400Z,22.17
2022-07-27T08:33:03.843Z,22.19
2022-07-27T08:34:03.617Z,22.10
2022-07-27T08:35:03.307Z,21.83
2022-07-27T08:36:03.834Z,21.78
2022-07-27T08:37:03.261Z,21.76
2022-07-27T08:38:02.964Z,21.77
2022-07-27T08:39:02.692Z,21.72
2022-07-27T08:41:02.957Z,21.70
2022-07-27T08:42:02.877Z,21.73
2022-07-27T08:43:02.977Z,21.71
2022-07-27T08:44:03.370Z,21.78
2022-07-27T08:45:03.184Z,21.88
2022-07-27T08:46:03.090Z,21.98
2022-07-27T08:47:03.713Z,22.12
2022-07-27T08:48:03.661Z,22.27
2022-07-27T08:49:03.495Z,22.41
2022-07-27T08:50:04.087Z,22.54
2022-07-27T08:51:03.516Z,22.66
2022-07-27T08:52:03.348Z,22.77
2022-07-27T08:53:03.458Z,22.85
2022-07-27T08:54:03.437Z,22.91
2022-07-27T08:55:03.189Z,22.96
2022-07-27T08:56:03.170Z,23.06
2022-07-27T08:57:03.670Z,23.13
2022-07-27T08:58:04.256Z,23.15
2022-07-27T08:59:03.831Z,23.06
2022-07-27T09:00:03.672Z,23.04
2022-07-27T09:01:03.571Z,23.07
2022-07-27T09:02:03.672Z,23.02
2022-07-27T09:03:02.973Z,23.00
2022-07-27T09:04:03.413Z,23.02
2022-07-27T09:05:03.200Z,23.07
2022-07-27T09:06:03.008Z,23.08
2022-07-27T09:07:02.406Z,23.11
2022-07-27T09:08:02.568Z,23.13
2022-07-27T09:09:02.744Z,23.14
2022-07-27T09:10:02.371Z,23.16
2022-07-27T09:11:02.371Z,23.21
2022-07-27T09:12:02.905Z,23.28
2022-07-27T09:13:02.739Z,23.35
2022-07-27T09:14:03.095Z,23.42
2022-07-27T09:15:02.933Z,23.48
2022-07-27T09:16:20.138Z,23.53
2022-07-27T09:17:46.746Z,23.59
2022-07-27T09:18:03.020Z,23.69
2022-07-27T09:19:03.226Z,23.77
2022-07-27T09:20:03.123Z,23.82
2022-07-27T09:21:03.599Z,23.89
2022-07-27T09:22:03.386Z,23.97
2022-07-27T09:23:03.555Z,24.03
2022-07-27T09:24:06.861Z,24.12
2022-07-27T09:25:02.896Z,24.22
2022-07-27T09:26:10.879Z,24.23
2022-07-27T09:27:02.631Z,24.24
2022-07-27T09:28:02.461Z,24.06
2022-07-27T09:29:02.902Z,24.07
2022-07-27T09:30:02.737Z,24.11
2022-07-27T09:31:02.500Z,24.18
2022-07-27T09:32:02.863Z,24.24
2022-07-27T09:33:02.718Z,24.26
2022-07-27T09:34:03.129Z,24.26
2022-07-27T09:35:02.897Z,24.24
2022-07-27T09:36:03.011Z,24.23
2022-07-27T09:37:05.496Z,24.26
2022-07-27T09:38:03.769Z,24.30
2022-07-27T09:39:03.906Z,24.30
2022-07-27T09:40:03.761Z,24.37
2022-07-27T09:41:03.709Z,24.44
2022-07-27T09:42:03.210Z,24.53
2022-07-27T09:43:14.491Z,24.61
2022-07-27T09:44:30.759Z,24.66
2022-07-27T09:45:03.051Z,24.73
2022-07-27T09:46:02.911Z,24.83
2022-07-27T09:47:03.356Z,24.89
2022-07-27T09:48:03.225Z,24.95
2022-07-27T09:49:03.063Z,25.02
2022-07-27T09:50:03.410Z,24.89
2022-07-27T09:51:27.746Z,24.84
2022-07-27T09:52:03.801Z,24.76
2022-07-27T09:53:19.737Z,24.73
2022-07-27T09:54:03.517Z,24.68
2022-07-27T09:55:03.838Z,24.73
2022-07-27T09:56:03.232Z,24.80
2022-07-27T09:57:03.018Z,24.91
2022-07-27T09:58:02.565Z,24.99
2022-07-27T09:59:02.939Z,25.00
2022-07-27T10:00:02.568Z,25.12
2022-07-27T10:01:02.872Z,25.17
2022-07-27T10:02:03.500Z,25.18
2022-07-27T10:03:03.241Z,25.12
2022-07-27T10:04:03.675Z,25.17
2022-07-27T10:05:03.580Z,25.00
2022-07-27T10:06:03.410Z,24.87
2022-07-27T10:07:06.300Z,24.87
2022-07-27T10:08:03.522Z,24.81
2022-07-27T10:09:03.363Z,24.74
2022-07-27T10:10:03.379Z,24.77
2022-07-27T10:11:04.166Z,24.64
2022-07-27T10:12:04.076Z,24.62
2022-07-27T10:13:04.029Z,24.57
2022-07-27T10:14:04.145Z,24.41
2022-07-27T10:15:03.775Z,24.39
2022-07-27T10:16:04.025Z,24.36
2022-07-27T10:17:03.615Z,24.35
2022-07-27T10:18:06.843Z,24.35
2022-07-27T10:19:03.679Z,24.36
2022-07-27T10:20:03.239Z,24.28
2022-07-27T10:21:03.615Z,24.24
2022-07-27T10:22:04.117Z,24.25
2022-07-27T10:23:04.003Z,24.19
2022-07-27T10:24:03.749Z,23.98
2022-07-27T10:25:04.107Z,23.90
2022-07-27T10:26:03.918Z,23.88
2022-07-27T10:27:04.415Z,23.90
2022-07-27T10:28:04.084Z,23.87
2022-07-27T10:29:04.579Z,23.89
2022-07-27T10:30:04.083Z,23.91
2022-07-27T10:31:04.458Z,23.81
2022-07-27T10:32:04.026Z,23.76
2022-07-27T10:33:03.703Z,23.79
2022-07-27T10:34:03.533Z,23.70
2022-07-27T10:35:03.902Z,23.71
2022-07-27T10:36:03.719Z,23.72
2022-07-27T10:37:04.247Z,23.72
2022-07-27T10:38:04.007Z,23.74
2022-07-27T10:39:03.709Z,23.79
2022-07-27T10:40:04.155Z,23.72
2022-07-27T10:41:03.872Z,23.76
2022-07-27T10:42:03.995Z,23.80
2022-07-27T10:43:03.914Z,23.88
2022-07-27T10:44:03.549Z,23.91
2022-07-27T10:45:04.051Z,23.85
2022-07-27T10:46:03.870Z,23.86
2022-07-27T10:47:04.263Z,23.90
2022-07-27T10:48:03.868Z,23.94
2022-07-27T10:49:04.283Z,23.97
2022-07-27T10:50:03.654Z,24.01
2022-07-27T10:51:04.108Z,24.09
2022-07-27T10:52:04.695Z,24.13
2022-07-27T10:53:04.502Z,24.07
2022-07-27T10:54:12.386Z,23.98
2022-07-27T10:55:04.642Z,24.00
2022-07-27T10:56:04.346Z,23.89
2022-07-27T10:57:03.586Z,23.90
2022-07-27T10:58:03.967Z,23.93
2022-07-27T10:59:03.745Z,24.05
2022-07-27T11:00:09.437Z,24.15
2022-07-27T11:01:04.117Z,24.18
2022-07-27T11:02:03.961Z,24.08
2022-07-27T11:03:03.377Z,24.10
2022-07-27T11:04:03.632Z,24.07
2022-07-27T11:05:03.392Z,24.14
2022-07-27T11:06:21.916Z,24.16
2022-07-27T11:08:35.371Z,24.25
2022-07-27T11:10:04.628Z,24.45
2022-07-27T11:11:03.497Z,24.56
2022-07-27T11:12:03.327Z,24.66
2022-07-27T11:13:09.646Z,24.77
2022-07-27T11:14:03.582Z,24.90
2022-07-27T11:15:03.364Z,24.97
2022-07-27T11:16:23.558Z,24.98
2022-07-27T11:17:25.561Z,25.00
2022-07-27T11:18:05.310Z,24.91
2022-07-27T11:19:04.010Z,24.90
2022-07-27T11:20:03.939Z,24.75
2022-07-27T11:21:04.652Z,24.72
2022-07-27T11:22:04.817Z,24.65
2022-07-27T11:23:49.545Z,24.66
2022-07-27T11:24:03.129Z,24.70
2022-07-27T11:25:02.984Z,24.76
2022-07-27T11:26:03.457Z,24.80
2022-07-27T11:27:03.119Z,24.87
2022-07-27T11:28:03.771Z,24.94
2022-07-27T11:29:03.807Z,24.88
2022-07-27T11:30:03.635Z,24.82
2022-07-27T11:31:03.947Z,24.82
2022-07-27T11:32:03.537Z,24.83
2022-07-27T11:33:04.061Z,24.88
2022-07-27T11:34:03.744Z,24.96
2022-07-27T11:35:06.540Z,25.02
2022-07-27T11:36:04.098Z,25.09
2022-07-27T11:37:03.794Z,25.16
2022-07-27T11:38:03.318Z,25.25
2022-07-27T11:39:03.070Z,25.34
2022-07-27T11:40:20.081Z,25.43
2022-07-27T11:41:18.351Z,25.46
2022-07-27T11:42:09.105Z,25.47
2022-07-27T11:43:03.904Z,25.49
2022-07-27T11:44:03.648Z,25.47
2022-07-27T11:45:03.849Z,25.42
2022-07-27T11:46:03.693Z,25.23
2022-07-27T11:47:04.115Z,25.09
2022-07-27T11:48:03.551Z,24.93
2022-07-27T11:49:08.018Z,24.72
2022-07-27T11:50:03.775Z,24.67
2022-07-27T11:51:03.401Z,24.61
2022-07-27T11:52:03.277Z,24.49
2022-07-27T11:53:03.786Z,24.42
2022-07-27T11:54:03.441Z,24.37
2022-07-27T11:55:03.315Z,24.32
2022-07-27T11:56:03.791Z,24.17
2022-07-27T11:57:03.515Z,24.10
2022-07-27T11:58:04.012Z,24.02
2022-07-27T11:59:03.809Z,23.97
2022-07-27T12:00:04.094Z,23.92
2022-07-27T12:01:03.915Z,23.95
2022-07-27T12:02:04.026Z,23.99
2022-07-27T12:03:03.580Z,23.96
2022-07-27T12:04:03.305Z,23.95
2022-07-27T12:05:03.456Z,23.94
2022-07-27T12:06:03.375Z,23.99
2022-07-27T12:07:03.141Z,24.07
2022-07-27T12:08:03.173Z,24.16
2022-07-27T12:09:02.945Z,24.25
2022-07-27T12:10:02.735Z,24.33
2022-07-27T12:11:03.216Z,24.41
2022-07-27T12:12:02.945Z,24.53
2022-07-27T12:13:03.165Z,24.63
2022-07-27T12:14:02.997Z,24.75
2022-07-27T12:15:11.679Z,24.86
2022-07-27T12:16:03.347Z,25.01
2022-07-27T12:17:03.057Z,25.11
2022-07-27T12:19:03.085Z,25.30
2022-07-27T12:20:03.088Z,25.40
2022-07-27T12:21:03.275Z,25.52
2022-07-27T12:22:03.063Z,25.56
2022-07-27T12:23:03.890Z,25.60
2022-07-27T12:24:04.119Z,25.62
2022-07-27T12:25:03.811Z,25.70
2022-07-27T12:26:03.632Z,25.80
2022-07-27T12:27:06.673Z,25.83
2022-07-27T12:28:02.833Z,25.91
2022-07-27T12:29:03.198Z,25.81
2022-07-27T12:30:02.850Z,25.86
2022-07-27T12:31:03.392Z,25.85
2022-07-27T12:32:03.046Z,25.83
2022-07-27T12:33:03.510Z,25.67
2022-07-27T12:34:06.434Z,25.61
2022-07-27T12:35:03.724Z,25.59
2022-07-27T12:36:03.661Z,25.61
2022-07-27T12:37:04.128Z,25.49
2022-07-27T12:38:03.011Z,25.41
2022-07-27T12:39:03.548Z,25.29
2022-07-27T12:40:02.879Z,25.22
2022-07-27T12:41:03.423Z,25.18
2022-07-27T12:42:03.152Z,25.13
2022-07-27T12:43:03.592Z,25.08
2022-07-27T12:44:04.137Z,25.02
2022-07-27T12:45:03.755Z,24.89
2022-07-27T12:46:03.725Z,24.73
2022-07-27T12:47:03.591Z,24.55
2022-07-27T12:48:03.189Z,24.50
2022-07-27T12:49:03.677Z,24.44
2022-07-27T12:50:03.499Z,24.51
2022-07-27T12:51:03.261Z,24.55
2022-07-27T12:52:03.142Z,24.59
2022-07-27T12:53:03.629Z,24.64
2022-07-27T12:54:04.124Z,24.70
2022-07-27T12:55:03.900Z,24.76
2022-07-27T12:56:03.694Z,24.72